createdAt,value
2022-10-18T00:00:33.831Z,15.64
2022-10-18T00:03:25.779Z,15.63
2022-10-18T00:05:58.204Z,15.61
2022-10-18T00:08:30.505Z,15.58
2022-10-18T00:11:02.454Z,15.56
2022-10-18T00:13:35.062Z,15.55
2022-10-18T00:16:12.260Z,15.54
2022-10-18T00:18:48.045Z,15.53
2022-10-18T00:21:22.432Z,15.52
2022-10-18T00:23:55.491Z,15.50
2022-10-18T00:26:29.364Z,15.48
2022-10-18T00:29:03.395Z,15.46
2022-10-18T00:31:36.961Z,15.43
2022-10-18T00:34:12.010Z,15.41
2022-10-18T00:36:45.331Z,15.39
2022-10-18T00:39:21.275Z,15.36
2022-10-18T00:41:53.653Z,15.36
2022-10-18T00:45:06.796Z,15.34
2022-10-18T00:47:38.630Z,15.32
2022-10-18T00:50:11.737Z,15.30
2022-10-18T00:52:48.053Z,15.28
2022-10-18T00:55:20.806Z,15.24
2022-10-18T01:00:30.297Z,15.16
2022-10-18T01:03:02.467Z,15.09
2022-10-18T01:05:38.721Z,15.04
2022-10-18T01:08:36.240Z,14.99
2022-10-18T01:11:19.676Z,14.95
2022-10-18T01:14:03.132Z,14.94
2022-10-18T01:16:40.675Z,14.96
2022-10-18T01:19:26.820Z,14.99
2022-10-18T01:22:03.981Z,15.02
2022-10-18T01:24:56.636Z,15.06
2022-10-18T01:27:37.274Z,15.08
2022-10-18T01:30:44.205Z,15.10
2022-10-18T01:33:22.971Z,15.11
2022-10-18T01:36:01.920Z,15.12
2022-10-18T01:38:37.052Z,15.14
2022-10-18T01:41:14.872Z,15.14
2022-10-18T01:43:51.448Z,15.12
2022-10-18T01:46:26.313Z,15.11
2022-10-18T01:48:59.356Z,15.10
2022-10-18T01:51:33.898Z,15.11
2022-10-18T01:54:06.520Z,15.10
2022-10-18T01:56:51.086Z,15.09
2022-10-18T01:59:39.196Z,15.07
2022-10-18T02:02:22.709Z,15.05
2022-10-18T02:05:03.279Z,15.04
2022-10-18T02:07:46.658Z,15.02
2022-10-18T02:10:31.345Z,15.00
2022-10-18T02:13:03.955Z,14.98
2022-10-18T02:15:40.195Z,14.96
2022-10-18T02:18:17.126Z,14.95
2022-10-18T02:20:49.948Z,14.92
2022-10-18T02:23:25.654Z,14.90
2022-10-18T02:25:58.017Z,14.88
2022-10-18T02:28:30.077Z,14.86
2022-10-18T02:31:04.761Z,14.82
2022-10-18T02:33:43.924Z,14.77
2022-10-18T02:36:25.142Z,14.75
2022-10-18T02:39:01.534Z,14.72
2022-10-18T02:41:34.204Z,14.69
2022-10-18T02:44:06.176Z,14.65
2022-10-18T02:46:36.786Z,14.61
2022-10-18T02:49:08.903Z,14.57
2022-10-18T02:51:40.767Z,14.55
2022-10-18T02:54:12.635Z,14.52
2022-10-18T02:56:44.499Z,14.49
2022-10-18T02:59:16.639Z,14.46
2022-10-18T03:01:48.590Z,14.42
2022-10-18T03:04:19.276Z,14.40
2022-10-18T03:06:51.442Z,14.37
2022-10-18T03:09:21.844Z,14.35
2022-10-18T03:11:53.709Z,14.32
2022-10-18T03:14:25.669Z,14.31
2022-10-18T03:16:57.751Z,14.31
2022-10-18T03:19:29.748Z,14.31
2022-10-18T03:22:00.123Z,14.31
2022-10-18T03:24:32.087Z,14.31
2022-10-18T03:27:03.855Z,14.31
2022-10-18T03:29:35.738Z,14.25
2022-10-18T03:32:08.195Z,14.19
2022-10-18T03:34:40.585Z,14.14
2022-10-18T03:37:12.507Z,14.08
2022-10-18T03:39:44.444Z,14.01
2022-10-18T03:42:16.559Z,13.95
2022-10-18T03:44:46.907Z,13.88
2022-10-18T03:47:18.697Z,13.81
2022-10-18T03:49:53.239Z,13.78
2022-10-18T03:52:33.155Z,13.75
2022-10-18T03:55:09.669Z,13.74
2022-10-18T03:57:41.584Z,13.75
2022-10-18T04:00:15.412Z,13.76
2022-10-18T04:02:50.702Z,13.79
2022-10-18T04:05:27.989Z,13.81
2022-10-18T04:08:00.561Z,13.83
2022-10-18T04:10:32.415Z,13.85
2022-10-18T04:13:04.287Z,13.85
2022-10-18T04:15:36.156Z,13.83
2022-10-18T04:18:06.947Z,13.82
2022-10-18T04:20:39.819Z,13.80
2022-10-18T04:24:22.927Z,13.79
2022-10-18T04:26:53.753Z,13.74
2022-10-18T04:29:25.851Z,13.71
2022-10-18T04:31:57.795Z,13.69
2022-10-18T04:34:29.714Z,13.69
2022-10-18T04:37:02.203Z,13.67
2022-10-18T04:39:34.158Z,13.66
2022-10-18T04:42:04.818Z,13.64
2022-10-18T04:44:36.721Z,13.59
2022-10-18T04:47:08.816Z,13.57
2022-10-18T04:49:40.822Z,13.54
2022-10-18T04:52:12.741Z,13.51
2022-10-18T04:54:44.565Z,13.47
2022-10-18T04:57:16.727Z,13.45
2022-10-18T04:59:48.701Z,13.42
2022-10-18T05:02:20.812Z,13.41
2022-10-18T05:04:53.241Z,13.39
2022-10-18T05:07:25.181Z,13.37
2022-10-18T05:09:57.104Z,13.36
2022-10-18T05:12:29.601Z,13.35
2022-10-18T05:15:01.987Z,13.32
2022-10-18T05:17:34.179Z,13.25
2022-10-18T05:20:06.956Z,13.22
2022-10-18T05:22:39.103Z,13.22
2022-10-18T05:25:10.220Z,13.24
2022-10-18T05:27:42.004Z,13.26
2022-10-18T05:30:14.688Z,13.28
2022-10-18T05:32:46.875Z,13.32
2022-10-18T05:35:17.337Z,13.35
2022-10-18T05:37:49.697Z,13.36
2022-10-18T05:40:21.566Z,13.39
2022-10-18T05:42:54.090Z,13.45
2022-10-18T05:45:24.631Z,13.51
2022-10-18T05:47:56.903Z,13.56
2022-10-18T05:50:28.783Z,13.60
2022-10-18T05:53:11.922Z,13.66
2022-10-18T05:55:44.665Z,13.71
2022-10-18T05:58:16.745Z,13.77
2022-10-18T06:00:47.123Z,13.84
2022-10-18T06:03:19.338Z,13.90
2022-10-18T06:05:52.660Z,14.11
2022-10-18T06:08:24.604Z,14.40
2022-10-18T06:10:56.966Z,14.63
2022-10-18T06:13:31.144Z,14.89
2022-10-18T06:16:05.920Z,15.18
2022-10-18T06:18:38.229Z,15.43
2022-10-18T06:21:11.045Z,15.73
2022-10-18T06:23:43.367Z,16.01
2022-10-18T06:26:15.294Z,16.26
2022-10-18T06:28:47.424Z,16.44
2022-10-18T06:31:21.312Z,16.55
2022-10-18T06:33:53.240Z,16.55
2022-10-18T06:36:23.661Z,16.52
2022-10-18T06:38:57.656Z,16.46
2022-10-18T06:41:29.506Z,16.44
2022-10-18T06:44:13.747Z,16.42
2022-10-18T06:46:47.488Z,16.42
2022-10-18T06:49:19.515Z,16.40
2022-10-18T06:51:51.411Z,16.53
2022-10-18T06:54:22.022Z,16.73
2022-10-18T06:56:56.583Z,16.93
2022-10-18T06:59:31.155Z,17.17
2022-10-18T07:02:03.533Z,17.41
2022-10-18T07:04:35.819Z,17.70
2022-10-18T07:07:08.060Z,17.96
2022-10-18T07:09:40.400Z,18.19
2022-10-18T07:12:12.382Z,18.41
2022-10-18T07:14:45.679Z,18.70
2022-10-18T07:17:17.813Z,19.09
2022-10-18T07:19:49.838Z,19.39
2022-10-18T07:22:20.067Z,19.65
2022-10-18T07:24:52.158Z,19.83
2022-10-18T07:27:24.200Z,20.01
2022-10-18T07:29:56.042Z,20.24
2022-10-18T07:32:26.348Z,20.43
2022-10-18T07:34:58.388Z,20.58
2022-10-18T07:37:30.683Z,20.77
2022-10-18T07:40:02.730Z,20.92
2022-10-18T07:42:35.501Z,21.12
2022-10-18T07:45:08.667Z,21.40
2022-10-18T07:47:41.232Z,21.55
2022-10-18T07:50:13.752Z,21.63
2022-10-18T07:52:46.106Z,21.74
2022-10-18T07:55:18.400Z,21.88
2022-10-18T07:57:50.505Z,22.02
2022-10-18T08:00:22.891Z,22.16
2022-10-18T08:02:58.342Z,22.33
2022-10-18T08:08:09.291Z,22.67
2022-10-18T08:10:41.375Z,22.87
2022-10-18T08:13:13.586Z,23.07
2022-10-18T08:15:45.715Z,23.29
2022-10-18T08:18:17.785Z,23.41
2022-10-18T08:20:49.885Z,23.58
2022-10-18T08:23:21.931Z,23.77
2022-10-18T08:25:53.783Z,23.82
2022-10-18T08:28:26.636Z,23.92
2022-10-18T08:30:58.752Z,24.05
2022-10-18T08:33:30.627Z,24.32
2022-10-18T08:36:05.823Z,24.62
2022-10-18T08:38:39.848Z,24.89
2022-10-18T08:41:31.001Z,25.10
2022-10-18T08:44:11.796Z,25.29
2022-10-18T08:46:48.767Z,25.38
2022-10-18T08:49:28.599Z,25.53
2022-10-18T08:52:00.912Z,25.66
2022-10-18T08:54:38.144Z,25.83
2022-10-18T08:57:18.117Z,26.00
2022-10-18T08:59:49.995Z,26.17
2022-10-18T09:02:34.967Z,26.36
2022-10-18T09:05:18.418Z,26.55
2022-10-18T09:08:10.330Z,26.57
2022-10-18T09:10:54.754Z,26.52
2022-10-18T09:13:57.761Z,26.31
2022-10-18T09:16:38.716Z,26.27
2022-10-18T09:19:23.222Z,26.15
2022-10-18T09:21:57.477Z,26.15
2022-10-18T09:24:37.053Z,26.22
2022-10-18T09:27:16.497Z,26.30
2022-10-18T09:29:59.864Z,26.37
2022-10-18T09:32:42.719Z,26.42
2022-10-18T09:35:19.382Z,26.50
2022-10-18T09:37:55.246Z,26.57
2022-10-18T09:40:30.234Z,26.51
2022-10-18T09:43:07.656Z,26.46
2022-10-18T09:45:44.107Z,26.48
2022-10-18T09:48:21.543Z,26.52
2022-10-18T09:50:59.343Z,26.59
2022-10-18T09:53:39.831Z,26.66
2022-10-18T09:56:16.330Z,26.65
2022-10-18T09:58:51.568Z,26.71
2022-10-18T10:01:25.646Z,26.73
2022-10-18T10:03:57.592Z,26.78
2022-10-18T10:06:31.343Z,26.77
2022-10-18T10:09:09.253Z,26.77
2022-10-18T10:11:46.384Z,26.82
2022-10-18T10:14:23.176Z,26.75
2022-10-18T10:16:57.930Z,26.62
2022-10-18T10:19:34.703Z,26.35
2022-10-18T10:22:10.946Z,26.10
2022-10-18T10:24:51.626Z,25.79
2022-10-18T10:27:30.089Z,25.42
2022-10-18T10:30:07.133Z,25.20
2022-10-18T10:32:50.309Z,25.03
2022-10-18T10:35:41.522Z,24.85
2022-10-18T10:38:28.170Z,24.65
2022-10-18T10:41:00.746Z,24.46
2022-10-18T10:43:40.051Z,24.35
2022-10-18T10:46:15.045Z,24.28
2022-10-18T10:49:00.618Z,24.20
2022-10-18T10:51:50.583Z,24.11
2022-10-18T10:54:35.449Z,23.92
2022-10-18T10:57:18.097Z,23.78
2022-10-18T10:59:52.033Z,23.60
2022-10-18T11:02:30.800Z,23.43
2022-10-18T11:05:23.384Z,23.31
2022-10-18T11:07:57.870Z,23.24
2022-10-18T11:10:35.605Z,23.23
2022-10-18T11:13:23.334Z,23.23
2022-10-18T11:16:01.946Z,23.24
2022-10-18T11:18:38.327Z,23.21
2022-10-18T11:21:15.970Z,23.17
2022-10-18T11:23:48.052Z,23.11
2022-10-18T11:26:46.216Z,23.00
2022-10-18T11:29:38.045Z,23.00
2022-10-18T11:32:19.012Z,23.01
2022-10-18T11:35:05.063Z,23.01
2022-10-18T11:37:50.646Z,22.98
2022-10-18T11:40:45.813Z,22.95
2022-10-18T11:43:30.283Z,22.95
2022-10-18T11:46:21.912Z,22.95
2022-10-18T11:49:06.990Z,22.93
2022-10-18T11:52:07.861Z,22.89
2022-10-18T11:55:04.812Z,22.88
2022-10-18T11:57:44.871Z,22.89
2022-10-18T12:00:39.493Z,22.90
2022-10-18T12:03:23.626Z,22.88
2022-10-18T12:05:58.265Z,22.84
2022-10-18T12:08:35.432Z,22.74
2022-10-18T12:11:15.507Z,22.65
2022-10-18T12:13:52.300Z,22.55
2022-10-18T12:16:45.906Z,22.48
2022-10-18T12:19:26.292Z,22.44
2022-10-18T12:22:18.333Z,22.40
2022-10-18T12:24:50.241Z,22.33
2022-10-18T12:27:34.761Z,22.28
2022-10-18T12:30:15.532Z,22.24
2022-10-18T12:33:03.425Z,22.25
2022-10-18T12:35:56.817Z,22.27
2022-10-18T12:38:32.847Z,22.30
2022-10-18T12:41:06.631Z,22.33
2022-10-18T12:43:38.484Z,22.34
2022-10-18T12:46:13.791Z,22.35
2022-10-18T12:48:51.375Z,22.33
2022-10-18T12:51:24.463Z,22.33
2022-10-18T12:54:10.622Z,22.32
2022-10-18T12:56:46.803Z,22.33
2022-10-18T12:59:43.886Z,22.36
2022-10-18T13:02:31.068Z,22.35
2022-10-18T13:05:40.953Z,22.35
2022-10-18T13:08:27.305Z,22.33
2022-10-18T13:11:38.418Z,22.32
2022-10-18T13:14:31.936Z,22.34
2022-10-18T13:17:13.590Z,22.34
2022-10-18T13:20:20.516Z,22.34
2022-10-18T13:23:11.537Z,22.31
2022-10-18T13:25:55.486Z,22.28
2022-10-18T13:28:36.595Z,22.24
2022-10-18T13:31:19.176Z,22.21
2022-10-18T13:33:51.338Z,22.17
2022-10-18T13:36:26.549Z,22.15
2022-10-18T13:39:20.073Z,22.12
2022-10-18T13:42:29.570Z,22.08
2022-10-18T13:45:32.422Z,22.07
2022-10-18T13:48:35.063Z,22.06
2022-10-18T13:51:22.379Z,22.05
2022-10-18T13:54:02.196Z,22.03
2022-10-18T13:56:47.207Z,22.02
2022-10-18T13:59:41.724Z,22.02
2022-10-18T14:02:50.665Z,22.00
2022-10-18T14:05:42.918Z,21.98
2022-10-18T14:08:18.546Z,21.96
2022-10-18T14:11:02.481Z,21.94
2022-10-18T14:13:44.044Z,21.92
2022-10-18T14:16:33.101Z,21.89
2022-10-18T14:19:17.405Z,21.81
2022-10-18T14:21:55.483Z,21.70
2022-10-18T14:24:30.150Z,21.61
2022-10-18T14:27:19.940Z,21.52
2022-10-18T14:30:08.018Z,21.41
2022-10-18T14:32:43.700Z,21.31
2022-10-18T14:35:33.650Z,21.26
2022-10-18T14:38:07.250Z,21.16
2022-10-18T14:40:41.133Z,21.09
2022-10-18T14:43:16.643Z,21.04
2022-10-18T14:45:51.137Z,20.98
2022-10-18T14:48:25.566Z,20.92
2022-10-18T14:51:00.640Z,20.89
2022-10-18T14:53:38.487Z,20.84
2022-10-18T14:56:21.507Z,20.80
2022-10-18T14:58:54.683Z,20.75
2022-10-18T15:01:30.559Z,20.69
2022-10-18T15:04:06.927Z,20.64
2022-10-18T15:06:43.408Z,20.58
2022-10-18T15:09:21.712Z,20.55
2022-10-18T15:11:57.886Z,20.52
2022-10-18T15:14:30.852Z,20.49
2022-10-18T15:17:08.939Z,20.45
2022-10-18T15:19:42.899Z,20.40
2022-10-18T15:22:31.626Z,20.35
2022-10-18T15:25:15.600Z,20.31
2022-10-18T15:27:50.387Z,20.27
2022-10-18T15:30:27.897Z,20.25
2022-10-18T15:33:02.039Z,20.22
2022-10-18T15:35:36.077Z,20.17
2022-10-18T15:38:18.613Z,20.14
2022-10-18T15:40:51.030Z,20.07
2022-10-18T15:43:39.223Z,20.03
2022-10-18T15:46:32.714Z,19.96
2022-10-18T15:49:52.274Z,19.83
2022-10-18T15:52:39.533Z,19.67
2022-10-18T15:55:47.591Z,19.58
2022-10-18T15:58:25.083Z,19.47
2022-10-18T16:01:00.096Z,19.41
2022-10-18T16:03:36.143Z,19.36
2022-10-18T16:06:12.295Z,19.33
2022-10-18T16:08:49.430Z,19.32
2022-10-18T16:11:23.167Z,19.30
2022-10-18T16:13:58.003Z,19.26
2022-10-18T16:16:32.477Z,19.20
2022-10-18T16:19:03.181Z,19.09
2022-10-18T16:21:38.066Z,18.94
2022-10-18T16:24:10.864Z,18.79
2022-10-18T16:26:42.792Z,18.65
2022-10-18T16:29:16.790Z,18.55
2022-10-18T16:31:50.955Z,18.44
2022-10-18T16:34:23.368Z,18.33
2022-10-18T16:36:56.268Z,18.23
2022-10-18T16:39:29.262Z,18.15
2022-10-18T16:42:01.282Z,18.09
2022-10-18T16:44:33.347Z,18.02
2022-10-18T16:47:04.081Z,17.96
2022-10-18T16:49:36.252Z,17.86
2022-10-18T16:52:08.294Z,17.83
2022-10-18T16:54:38.754Z,17.79
2022-10-18T16:57:13.587Z,17.74
2022-10-18T16:59:52.423Z,17.72
2022-10-18T17:02:27.043Z,17.69
2022-10-18T17:04:59.275Z,17.67
2022-10-18T17:07:33.925Z,17.64
2022-10-18T17:10:06.888Z,17.63
2022-10-18T17:12:38.913Z,17.59
2022-10-18T17:15:10.314Z,17.55
2022-10-18T17:17:46.187Z,17.50
2022-10-18T17:20:24.011Z,17.46
2022-10-18T17:22:56.559Z,17.35
2022-10-18T17:28:06.193Z,17.04
2022-10-18T17:30:39.051Z,16.91
2022-10-18T17:33:11.629Z,16.84
2022-10-18T17:35:44.395Z,16.73
2022-10-18T17:38:16.502Z,16.59
2022-10-18T17:40:49.040Z,16.47
2022-10-18T17:43:21.234Z,16.38
2022-10-18T17:45:57.273Z,16.29
2022-10-18T17:48:29.428Z,16.19
2022-10-18T17:51:01.459Z,16.11
2022-10-18T17:53:35.037Z,16.04
2022-10-18T17:56:09.072Z,16.05
2022-10-18T17:58:43.561Z,16.09
2022-10-18T18:01:18.549Z,16.13
2022-10-18T18:03:51.163Z,16.17
2022-10-18T18:06:31.659Z,16.19
2022-10-18T18:09:07.481Z,16.20
2022-10-18T18:11:44.881Z,16.18
2022-10-18T18:14:24.762Z,16.12
2022-10-18T18:17:01.510Z,16.05
2022-10-18T18:19:35.626Z,16.00
2022-10-18T18:22:08.919Z,15.94
2022-10-18T18:24:42.836Z,15.87
2022-10-18T18:27:16.316Z,15.82
2022-10-18T18:29:59.735Z,15.77
2022-10-18T18:32:49.181Z,15.68
2022-10-18T18:35:31.947Z,15.60
2022-10-18T18:38:15.802Z,15.56
2022-10-18T18:41:11.455Z,15.54
2022-10-18T18:44:57.185Z,15.56
2022-10-18T18:47:37.180Z,15.55
2022-10-18T18:50:14.465Z,15.53
2022-10-18T18:52:47.365Z,15.49
2022-10-18T18:55:21.659Z,15.44
2022-10-18T18:57:53.926Z,15.39
2022-10-18T19:00:26.104Z,15.36
2022-10-18T19:02:58.106Z,15.32
2022-10-18T19:05:32.354Z,15.27
2022-10-18T19:08:06.246Z,15.21
2022-10-18T19:10:38.401Z,15.17
2022-10-18T19:13:10.320Z,15.15
2022-10-18T19:15:43.378Z,15.09
2022-10-18T19:18:23.175Z,15.05
2022-10-18T19:21:02.394Z,15.03
2022-10-18T19:23:34.950Z,15.01
2022-10-18T19:26:12.176Z,15.01
2022-10-18T19:28:44.485Z,14.96
2022-10-18T19:31:16.999Z,14.96
2022-10-18T19:33:59.406Z,14.95
2022-10-18T19:36:32.333Z,14.94
2022-10-18T19:39:07.699Z,14.92
2022-10-18T19:41:40.083Z,14.90
2022-10-18T19:44:11.989Z,14.86
2022-10-18T19:46:44.282Z,14.85
2022-10-18T19:49:16.861Z,14.83
2022-10-18T19:51:48.947Z,14.81
2022-10-18T19:54:20.876Z,14.81
2022-10-18T19:56:51.315Z,14.80
2022-10-18T19:59:26.373Z,14.79
2022-10-18T20:02:00.541Z,14.78
2022-10-18T20:04:34.947Z,14.79
2022-10-18T20:07:06.919Z,14.80
2022-10-18T20:09:37.200Z,14.84
2022-10-18T20:12:09.296Z,14.82
2022-10-18T20:14:39.587Z,14.82
2022-10-18T20:17:12.987Z,14.81
2022-10-18T20:19:45.128Z,14.83
2022-10-18T20:22:17.144Z,14.85
2022-10-18T20:24:47.691Z,14.87
2022-10-18T20:27:19.669Z,14.82
2022-10-18T20:29:51.742Z,14.80
2022-10-18T20:32:22.002Z,14.79
2022-10-18T20:34:53.888Z,14.78
2022-10-18T20:37:25.736Z,14.80
2022-10-18T20:39:57.663Z,14.78
2022-10-18T20:42:29.550Z,14.76
2022-10-18T20:45:01.458Z,14.74
2022-10-18T20:47:53.435Z,14.70
2022-10-18T20:50:25.299Z,14.69
2022-10-18T20:52:57.512Z,14.68
2022-10-18T20:55:31.256Z,14.70
2022-10-18T20:58:03.665Z,14.73
2022-10-18T21:00:36.154Z,14.75
2022-10-18T21:03:08.191Z,14.76
2022-10-18T21:05:38.522Z,14.79
2022-10-18T21:08:10.358Z,14.77
2022-10-18T21:10:42.196Z,14.78
2022-10-18T21:13:14.055Z,14.77
2022-10-18T21:15:54.279Z,14.75
2022-10-18T21:18:28.000Z,14.71
2022-10-18T21:21:10.241Z,14.67
2022-10-18T21:23:42.422Z,14.65
2022-10-18T21:26:17.714Z,14.65
2022-10-18T21:28:50.709Z,14.64
2022-10-18T21:31:23.941Z,14.63
2022-10-18T21:33:57.927Z,14.65
2022-10-18T21:36:31.826Z,14.69
2022-10-18T21:39:04.863Z,14.72
2022-10-18T21:41:37.840Z,14.76
2022-10-18T21:44:10.822Z,14.79
2022-10-18T21:46:44.103Z,14.83
2022-10-18T21:49:16.654Z,14.86
2022-10-18T21:51:48.552Z,14.87
2022-10-18T21:54:20.591Z,14.83
2022-10-18T21:56:52.750Z,14.78
2022-10-18T21:59:24.316Z,14.76
2022-10-18T22:01:56.407Z,14.69
2022-10-18T22:04:28.281Z,14.65
2022-10-18T22:06:59.536Z,14.61
2022-10-18T22:09:31.759Z,14.60
2022-10-18T22:12:02.822Z,14.58
2022-10-18T22:14:35.184Z,14.55
2022-10-18T22:17:07.013Z,14.52
2022-10-18T22:19:38.871Z,14.53
2022-10-18T22:22:10.898Z,14.54
2022-10-18T22:24:41.276Z,14.57
2022-10-18T22:27:13.129Z,14.58
2022-10-18T22:29:45.026Z,14.63
2022-10-18T22:32:15.442Z,14.65
2022-10-18T22:34:47.550Z,14.66
2022-10-18T22:37:17.801Z,14.70
2022-10-18T22:39:49.835Z,14.72
2022-10-18T22:42:20.181Z,14.74
2022-10-18T22:44:52.203Z,14.74
2022-10-18T22:47:24.295Z,14.72
2022-10-18T22:49:56.339Z,14.69
2022-10-18T22:52:28.394Z,14.69
2022-10-18T22:55:00.276Z,14.69
2022-10-18T22:57:32.876Z,14.69
2022-10-18T23:00:05.577Z,14.69
2022-10-18T23:02:37.879Z,14.69
2022-10-18T23:05:11.399Z,14.70
2022-10-18T23:07:43.189Z,14.70
2022-10-18T23:10:15.133Z,14.67
2022-10-18T23:12:45.610Z,14.65
2022-10-18T23:15:17.861Z,14.61
2022-10-18T23:17:50.119Z,14.60
2022-10-18T23:20:22.090Z,14.62
2022-10-18T23:22:52.366Z,14.64
2022-10-18T23:25:24.337Z,14.65
2022-10-18T23:27:56.370Z,14.69
2022-10-18T23:30:26.671Z,14.72
2022-10-18T23:32:58.690Z,14.73
2022-10-18T23:35:29.929Z,14.75
2022-10-18T23:38:01.775Z,14.73
2022-10-18T23:40:33.682Z,14.71
2022-10-18T23:43:05.662Z,14.68
2022-10-18T23:45:36.055Z,14.65
2022-10-18T23:48:08.590Z,14.60
2022-10-18T23:50:40.418Z,14.57
2022-10-18T23:53:12.438Z,14.53
2022-10-18T23:55:49.636Z,14.48
2022-10-18T23:58:21.558Z,14.42
